Methoni, Greece
Current Conditions -  °F | °C
As of 8:50 PM on Thursday 27 Nov 2014 (Local Time) from LGKL Reporting Station
Broken Clouds Broken Clouds  
Wind Chill: 12°   Ceiling: 8000
Heat Index: 12°   Visibility: 5mi
Dew Point: 11°   Wind: 0mph
Humidity: 94%   Direction: NA
Pressure: 30.06"   Gusts: NA
Location:  36.82°N, 21.7°E
Report Text: LGKL 271750Z 00000KT 8000 SCT025 BKN080 12/11 Q1018
Loading
Personal Weather Stations






























Interactive Weather Map New forecast layout! Learn more

10-Day Weather Forecast

Advertisements
Track Severe Weather on mobile